Time;durP1;ratioP1;P1;durP2;ratioP2;P2;SDS_P1;SDS_P2;PMS_P1;PMS_P2;Temp;Humidity;BMP_temperature;BMP_pressure;BME280_temperature;BME280_humidity;BME280_pressure;Samples;Min_cycle;Max_cycle;Signal;HPM_P1;HPM_P2
2023/08/08 00:01:27;;;;;;;2.07;1.80;;;19.60;53.50;;;;;;5044465;28;20648;-48
2023/08/08 00:03:53;;;;;;;1.83;1.57;;;19.60;53.30;;;;;;5047578;28;20479;-46
2023/08/08 00:06:19;;;;;;;2.00;1.90;;;19.50;53.40;;;;;;5050957;28;20262;-46
2023/08/08 00:08:44;;;;;;;1.63;1.40;;;19.50;53.50;;;;;;5042250;28;20201;-45
2023/08/08 00:11:10;;;;;;;2.53;1.83;;;19.50;53.60;;;;;;5040597;28;20191;-47
2023/08/08 00:13:36;;;;;;;2.43;1.80;;;19.50;53.60;;;;;;5044932;28;20287;-46
2023/08/08 00:16:02;;;;;;;3.30;3.00;;;19.40;53.90;;;;;;5044725;28;20545;-47
2023/08/08 00:18:28;;;;;;;2.13;1.80;;;19.40;54.00;;;;;;5045246;28;20445;-45
2023/08/08 00:20:54;;;;;;;2.70;1.67;;;19.30;53.90;;;;;;5047057;28;20200;-45
2023/08/08 00:23:19;;;;;;;3.63;1.60;;;19.30;53.90;;;;;;5044976;28;20993;-49
2023/08/08 00:25:49;;;;;;;2.07;1.60;;;19.30;54.20;;;;;;5045689;28;20284;-46
2023/08/08 00:28:15;;;;;;;2.63;1.87;;;19.30;54.10;;;;;;5043503;28;20224;-46
2023/08/08 00:30:41;;;;;;;1.83;1.20;;;19.30;54.00;;;;;;5044585;28;20457;-47
2023/08/08 00:33:07;;;;;;;2.37;1.80;;;19.40;54.10;;;;;;5045871;28;20443;-46
2023/08/08 00:35:32;;;;;;;1.93;1.83;;;19.40;54.00;;;;;;5044087;28;20192;-46
2023/08/08 00:37:58;;;;;;;2.10;1.80;;;19.40;54.00;;;;;;5049362;28;20652;-45
2023/08/08 00:40:24;;;;;;;1.60;1.50;;;19.30;54.10;;;;;;5048174;28;20205;-46
2023/08/08 00:42:49;;;;;;;2.27;1.70;;;19.40;54.10;;;;;;5044905;28;20203;-46
2023/08/08 00:45:15;;;;;;;4.13;1.60;;;19.40;54.10;;;;;;5046531;28;20642;-48
2023/08/08 00:47:40;;;;;;;3.63;2.03;;;19.30;54.20;;;;;;5051421;28;20189;-46
2023/08/08 00:50:06;;;;;;;4.30;1.67;;;19.30;54.60;;;;;;5049687;28;20683;-45
2023/08/08 00:52:32;;;;;;;1.60;1.50;;;19.20;54.70;;;;;;5049400;28;20267;-45
2023/08/08 00:54:58;;;;;;;3.13;2.17;;;19.20;54.70;;;;;;5051456;28;20454;-46
2023/08/08 00:57:24;;;;;;;4.40;1.90;;;19.20;55.00;;;;;;5052193;28;20636;-46
2023/08/08 00:59:50;;;;;;;1.40;1.30;;;19.20;55.10;;;;;;5054227;28;20454;-46
2023/08/08 01:02:16;;;;;;;3.37;1.83;;;19.20;55.20;;;;;;5051115;28;20199;-46
2023/08/08 01:04:42;;;;;;;3.97;2.17;;;19.20;55.20;;;;;;5050272;28;20495;-46
2023/08/08 01:07:34;;;;;;;5.37;2.17;;;19.10;55.40;;;;;;5047854;28;20242;-47
2023/08/08 01:10:07;;;;;;;1.97;1.67;;;19.00;55.80;;;;;;5042040;28;20196;-46
2023/08/08 01:12:42;;;;;;;2.07;1.87;;;19.00;55.80;;;;;;5044461;28;20450;-47
2023/08/08 01:15:08;;;;;;;1.70;1.60;;;19.10;55.80;;;;;;5047708;28;20454;-49
2023/08/08 01:17:36;;;;;;;2.27;1.60;;;19.00;55.90;;;;;;5047047;28;20977;-46
2023/08/08 01:20:05;;;;;;;1.30;1.20;;;19.00;55.90;;;;;;5049860;28;20809;-46
2023/08/08 01:23:06;;;;;;;2.67;1.80;;;19.00;55.90;;;;;;5043851;28;20535;-46
2023/08/08 01:25:32;;;;;;;1.70;1.60;;;18.90;56.70;;;;;;5035903;28;20522;-46
2023/08/08 01:27:57;;;;;;;2.63;1.60;;;18.80;56.40;;;;;;5041376;28;20540;-46
2023/08/08 01:30:23;;;;;;;3.40;1.70;;;18.80;56.30;;;;;;5042433;28;20456;-46
2023/08/08 01:32:48;;;;;;;2.73;1.80;;;18.90;56.10;;;;;;5040506;28;20200;-45
2023/08/08 01:35:14;;;;;;;2.03;1.60;;;18.80;56.50;;;;;;5041452;28;20234;-46
2023/08/08 01:37:46;;;;;;;1.80;1.67;;;18.70;56.90;;;;;;5038714;28;20687;-45
2023/08/08 01:40:15;;;;;;;3.07;1.60;;;18.50;57.40;;;;;;5043269;28;20639;-45
2023/08/08 01:42:43;;;;;;;1.90;1.80;;;18.50;57.20;;;;;;5039968;28;20435;-45
2023/08/08 01:45:10;;;;;;;1.73;1.63;;;18.70;57.10;;;;;;5039057;28;20510;-45
2023/08/08 01:47:36;;;;;;;2.00;1.80;;;18.70;56.90;;;;;;5042275;28;20458;-49
2023/08/08 01:50:01;;;;;;;2.33;1.80;;;18.80;56.80;;;;;;5039541;28;20516;-48
2023/08/08 01:52:27;;;;;;;3.03;2.10;;;18.80;56.70;;;;;;5037072;28;20435;-46
2023/08/08 01:54:52;;;;;;;2.30;1.80;;;18.70;56.90;;;;;;5049241;28;20259;-45
2023/08/08 01:57:18;;;;;;;3.10;1.80;;;18.70;56.80;;;;;;5043675;28;20193;-47
2023/08/08 01:59:45;;;;;;;1.70;1.40;;;18.80;56.90;;;;;;5038323;28;20224;-45
2023/08/08 02:02:11;;;;;;;2.40;2.20;;;18.80;56.80;;;;;;5038771;28;20250;-46
2023/08/08 02:04:36;;;;;;;2.43;1.57;;;19.00;56.70;;;;;;5039098;28;20491;-48
2023/08/08 02:07:02;;;;;;;2.57;1.80;;;18.90;56.60;;;;;;5040052;28;20193;-46
2023/08/08 02:09:28;;;;;;;1.70;1.60;;;18.90;56.80;;;;;;5041667;28;20235;-45
2023/08/08 02:11:54;;;;;;;2.27;1.90;;;18.90;56.70;;;;;;5040241;28;20203;-47
2023/08/08 02:14:19;;;;;;;2.03;1.53;;;19.00;56.60;;;;;;5042420;28;20192;-46
2023/08/08 02:16:45;;;;;;;1.63;1.53;;;19.00;56.50;;;;;;5041505;28;20196;-45
2023/08/08 02:19:10;;;;;;;2.00;1.67;;;18.90;56.70;;;;;;5050252;28;20196;-45
2023/08/08 02:21:36;;;;;;;2.40;2.00;;;18.80;56.80;;;;;;5045945;28;20663;-45
2023/08/08 02:24:01;;;;;;;2.27;1.40;;;18.80;56.90;;;;;;5046834;28;20240;-46
2023/08/08 02:26:27;;;;;;;1.67;1.57;;;18.80;57.00;;;;;;5037393;28;20288;-46
2023/08/08 02:28:52;;;;;;;1.60;1.50;;;18.90;56.90;;;;;;5037345;28;20188;-45
2023/08/08 02:31:20;;;;;;;2.20;2.00;;;19.00;56.70;;;;;;5035328;28;20664;-45
2023/08/08 02:33:50;;;;;;;1.90;1.80;;;19.10;56.50;;;;;;5041859;28;20832;-46
2023/08/08 02:36:16;;;;;;;1.70;1.53;;;19.10;56.30;;;;;;5039909;28;20439;-48
2023/08/08 02:38:42;;;;;;;2.77;2.03;;;19.10;56.40;;;;;;5045664;28;20483;-48
2023/08/08 02:41:08;;;;;;;1.67;1.57;;;19.10;56.30;;;;;;5039545;28;20481;-48
2023/08/08 02:43:33;;;;;;;3.80;2.10;;;19.20;56.20;;;;;;5045085;28;20698;-51
2023/08/08 02:45:59;;;;;;;2.47;2.03;;;19.30;56.10;;;;;;5040886;28;20201;-46
2023/08/08 02:48:24;;;;;;;2.57;2.07;;;19.30;56.30;;;;;;5041755;28;20260;-46
2023/08/08 02:50:50;;;;;;;2.00;1.80;;;19.30;56.30;;;;;;5047859;28;20258;-47
2023/08/08 02:53:15;;;;;;;2.93;1.87;;;19.30;56.30;;;;;;5044706;28;20193;-47
2023/08/08 02:55:41;;;;;;;2.57;1.60;;;19.30;56.20;;;;;;5047700;28;20200;-46
2023/08/08 02:58:06;;;;;;;2.13;1.93;;;19.30;56.30;;;;;;5047762;28;20227;-46
2023/08/08 03:00:32;;;;;;;1.87;1.67;;;19.20;56.70;;;;;;5044493;28;20885;-45
2023/08/08 03:02:58;;;;;;;3.77;1.93;;;19.00;56.50;;;;;;5049131;28;20192;-46
2023/08/08 03:05:23;;;;;;;1.43;1.33;;;19.00;56.70;;;;;;5048788;28;20610;-45
2023/08/08 03:07:49;;;;;;;1.80;1.70;;;19.10;56.50;;;;;;5044886;28;20200;-46
2023/08/08 03:10:15;;;;;;;1.67;1.57;;;19.20;56.50;;;;;;5045540;28;20246;-45
2023/08/08 03:12:41;;;;;;;2.27;2.07;;;19.20;56.50;;;;;;5047113;28;20184;-46
2023/08/08 03:15:07;;;;;;;4.43;1.77;;;19.20;56.40;;;;;;5050751;28;20497;-48
2023/08/08 03:17:34;;;;;;;2.70;2.10;;;19.30;56.20;;;;;;5049950;28;20476;-45
2023/08/08 03:20:00;;;;;;;1.90;1.60;;;19.30;56.00;;;;;;5050124;28;20501;-48
2023/08/08 03:22:26;;;;;;;2.77;1.97;;;19.40;56.00;;;;;;5048021;28;20475;-46
2023/08/08 03:24:51;;;;;;;4.63;2.20;;;19.40;56.00;;;;;;5041267;28;20575;-46
2023/08/08 03:27:17;;;;;;;2.33;1.87;;;19.40;55.90;;;;;;5046332;28;20196;-48
2023/08/08 03:29:42;;;;;;;2.33;1.90;;;19.40;55.90;;;;;;5047585;28;20714;-46
2023/08/08 03:32:08;;;;;;;1.53;1.40;;;19.40;55.90;;;;;;5043646;28;20197;-46
2023/08/08 03:34:34;;;;;;;1.63;1.53;;;19.40;56.00;;;;;;5048048;28;20228;-46
2023/08/08 03:37:00;;;;;;;3.53;1.93;;;19.30;56.10;;;;;;5044207;28;20185;-47
2023/08/08 03:39:26;;;;;;;5.83;1.87;;;19.30;56.10;;;;;;5050210;28;20192;-50
2023/08/08 03:41:52;;;;;;;2.70;2.50;;;19.20;56.30;;;;;;5043633;28;20196;-45
2023/08/08 03:44:17;;;;;;;1.53;1.43;;;19.10;56.50;;;;;;5049976;28;20550;-45
2023/08/08 03:46:43;;;;;;;3.63;1.63;;;19.10;56.50;;;;;;5043761;28;20588;-48
2023/08/08 03:49:08;;;;;;;2.33;1.77;;;19.10;56.60;;;;;;5038862;28;20209;-50
2023/08/08 03:51:34;;;;;;;2.53;2.33;;;19.10;56.60;;;;;;5040904;28;20192;-46
2023/08/08 03:54:00;;;;;;;3.77;1.67;;;19.10;56.50;;;;;;5038931;28;20193;-45
2023/08/08 03:56:27;;;;;;;1.63;1.53;;;19.20;56.60;;;;;;5037483;28;20454;-47
2023/08/08 03:58:52;;;;;;;1.67;1.57;;;19.20;56.60;;;;;;5038667;28;20648;-47
2023/08/08 04:01:18;;;;;;;2.00;1.83;;;19.20;56.60;;;;;;5033590;28;20439;-46
2023/08/08 04:03:43;;;;;;;2.53;1.90;;;19.20;56.60;;;;;;5040228;28;20315;-47
2023/08/08 04:06:09;;;;;;;1.90;1.67;;;19.20;56.70;;;;;;5045230;28;20200;-49
2023/08/08 04:08:35;;;;;;;2.63;1.90;;;19.10;56.80;;;;;;5038368;28;20197;-49
2023/08/08 04:11:01;;;;;;;8.53;3.10;;;19.20;56.90;;;;;;5040236;28;20231;-47
2023/08/08 04:13:26;;;;;;;2.60;1.87;;;19.20;57.00;;;;;;5041704;28;20197;-46
2023/08/08 04:15:52;;;;;;;4.30;1.63;;;19.00;57.30;;;;;;5045185;28;20664;-46
2023/08/08 04:18:18;;;;;;;2.70;1.80;;;19.00;57.40;;;;;;5055582;28;20203;-49
2023/08/08 04:20:46;;;;;;;2.53;1.60;;;19.00;57.50;;;;;;5052536;28;20216;-48
2023/08/08 04:23:11;;;;;;;2.40;1.67;;;18.90;57.80;;;;;;5042159;28;20481;-46
2023/08/08 04:25:37;;;;;;;2.30;1.87;;;18.90;57.70;;;;;;5043563;28;20443;-48
2023/08/08 04:28:03;;;;;;;2.07;1.93;;;19.00;57.50;;;;;;5039697;28;20193;-49
2023/08/08 04:30:29;;;;;;;3.13;2.20;;;19.10;57.30;;;;;;5041884;28;20209;-45
2023/08/08 04:32:54;;;;;;;2.00;1.80;;;19.10;57.30;;;;;;5039954;28;20432;-49
2023/08/08 04:35:20;;;;;;;10.80;2.03;;;19.00;57.60;;;;;;5041312;28;20809;-49
2023/08/08 04:37:45;;;;;;;2.90;2.07;;;19.00;57.60;;;;;;5041449;28;20203;-48
2023/08/08 04:40:11;;;;;;;2.97;1.93;;;19.00;57.60;;;;;;5043880;28;20250;-47
2023/08/08 04:42:37;;;;;;;1.97;1.70;;;19.10;57.60;;;;;;5039116;28;20188;-47
2023/08/08 04:45:03;;;;;;;1.83;1.73;;;18.90;57.60;;;;;;5052173;28;20220;-49
2023/08/08 04:47:28;;;;;;;2.37;1.80;;;19.10;57.60;;;;;;5044791;28;20543;-50
2023/08/08 04:49:54;;;;;;;2.07;1.77;;;19.20;57.30;;;;;;5048674;28;20438;-47
2023/08/08 04:52:19;;;;;;;1.80;1.70;;;19.30;57.10;;;;;;5045442;28;20197;-46
2023/08/08 04:54:45;;;;;;;4.17;2.67;;;19.30;56.90;;;;;;5053598;28;20189;-47
2023/08/08 04:57:11;;;;;;;2.07;1.63;;;19.40;56.90;;;;;;5050064;28;20568;-50
2023/08/08 04:59:36;;;;;;;4.30;2.10;;;19.40;56.70;;;;;;5054364;28;20188;-48
2023/08/08 05:02:02;;;;;;;1.80;1.70;;;19.50;56.70;;;;;;5051398;28;20542;-47
2023/08/08 05:04:27;;;;;;;2.03;1.90;;;19.50;56.70;;;;;;5046029;28;20279;-46
2023/08/08 05:06:53;;;;;;;2.47;2.07;;;19.50;56.70;;;;;;5052758;28;20276;-45
2023/08/08 05:09:20;;;;;;;2.60;1.80;;;19.60;56.70;;;;;;5044434;28;20200;-46
2023/08/08 05:11:46;;;;;;;2.97;1.80;;;19.60;56.90;;;;;;5053428;28;20188;-48
2023/08/08 05:14:11;;;;;;;2.30;2.00;;;19.70;57.10;;;;;;5054356;28;20422;-46
2023/08/08 05:16:37;;;;;;;3.80;2.03;;;19.70;56.80;;;;;;5049511;28;20196;-46
2023/08/08 05:19:03;;;;;;;2.13;1.87;;;19.70;56.70;;;;;;5048221;28;20716;-47
2023/08/08 05:21:28;;;;;;;2.17;1.70;;;19.70;56.50;;;;;;5039859;28;20443;-45
2023/08/08 05:23:54;;;;;;;1.93;1.73;;;19.60;56.10;;;;;;5051381;28;20334;-46
2023/08/08 05:26:20;;;;;;;3.30;1.57;;;19.50;56.10;;;;;;5044571;28;20192;-49
2023/08/08 05:28:45;;;;;;;3.07;2.20;;;19.40;56.70;;;;;;5040354;28;20721;-46
2023/08/08 05:31:11;;;;;;;4.53;1.70;;;19.60;58.10;;;;;;5040317;28;20196;-48
2023/08/08 05:33:36;;;;;;;5.03;1.67;;;19.80;57.50;;;;;;5041016;28;20233;-46
2023/08/08 05:36:02;;;;;;;3.93;1.67;;;20.00;57.10;;;;;;5042090;28;20212;-46
2023/08/08 05:38:28;;;;;;;3.10;1.90;;;20.20;56.70;;;;;;5047399;28;20238;-46
2023/08/08 05:40:53;;;;;;;4.63;2.00;;;20.20;55.30;;;;;;5039195;28;20201;-45
2023/08/08 05:43:20;;;;;;;3.10;1.67;;;20.00;55.10;;;;;;5043809;28;20688;-46
2023/08/08 05:45:46;;;;;;;1.70;1.60;;;19.80;55.70;;;;;;5045037;28;20251;-46
2023/08/08 05:48:12;;;;;;;3.73;2.63;;;19.70;56.10;;;;;;5037591;28;20447;-46
2023/08/08 05:50:40;;;;;;;2.80;1.57;;;19.80;55.70;;;;;;5042212;28;20222;-50
2023/08/08 05:53:06;;;;;;;1.60;1.50;;;19.60;55.90;;;;;;5044876;28;20217;-45
2023/08/08 05:55:32;;;;;;;2.40;1.70;;;19.60;55.70;;;;;;5043920;28;20464;-52
2023/08/08 05:57:58;;;;;;;1.53;1.33;;;19.80;55.80;;;;;;5041656;28;20193;-47
2023/08/08 06:00:23;;;;;;;1.53;1.37;;;19.90;55.70;;;;;;5037917;28;20185;-52
2023/08/08 06:02:49;;;;;;;2.53;1.50;;;20.10;55.40;;;;;;5048743;28;20231;-46
2023/08/08 06:05:17;;;;;;;4.80;1.50;;;20.10;55.20;;;;;;5041321;28;20231;-47
2023/08/08 06:07:43;;;;;;;2.30;1.70;;;20.20;55.30;;;;;;5038004;28;20193;-45
2023/08/08 06:10:09;;;;;;;2.13;1.87;;;20.20;55.10;;;;;;5031826;28;20446;-49
2023/08/08 06:12:35;;;;;;;3.40;1.80;;;20.40;54.90;;;;;;5039615;28;20255;-46
2023/08/08 06:15:00;;;;;;;2.10;1.90;;;20.40;54.80;;;;;;5034259;28;20447;-46
2023/08/08 06:17:26;;;;;;;4.33;1.80;;;20.60;54.80;;;;;;5038032;28;20365;-48
2023/08/08 06:19:53;;;;;;;1.53;1.40;;;20.80;54.60;;;;;;5048919;28;20203;-46
2023/08/08 06:22:19;;;;;;;1.90;1.80;;;20.80;54.10;;;;;;5043657;28;20234;-48
2023/08/08 06:24:45;;;;;;;4.40;1.50;;;20.90;53.90;;;;;;5050868;28;20490;-46
2023/08/08 06:27:10;;;;;;;4.57;2.20;;;20.90;53.90;;;;;;5048359;28;20706;-46
2023/08/08 06:29:36;;;;;;;2.00;1.80;;;21.10;53.90;;;;;;5049291;28;20605;-48
2023/08/08 06:32:01;;;;;;;2.93;2.03;;;21.30;53.80;;;;;;5042971;28;20582;-46
2023/08/08 06:34:27;;;;;;;1.70;1.60;;;21.30;52.80;;;;;;5042476;28;20228;-46
2023/08/08 06:36:52;;;;;;;1.97;1.37;;;21.00;53.00;;;;;;5041740;28;20257;-48
2023/08/08 06:39:21;;;;;;;1.97;1.43;;;21.10;53.30;;;;;;5042082;28;20208;-46
2023/08/08 06:41:46;;;;;;;2.67;1.77;;;21.00;52.80;;;;;;5037801;28;20201;-48
2023/08/08 06:44:12;;;;;;;2.10;1.50;;;21.20;52.90;;;;;;5050614;28;20559;-47
2023/08/08 06:46:37;;;;;;;1.47;1.37;;;21.40;52.80;;;;;;5052138;28;20192;-46
2023/08/08 06:49:04;;;;;;;2.27;1.67;;;21.50;52.40;;;;;;5052626;28;20228;-45
2023/08/08 06:51:30;;;;;;;1.70;1.57;;;21.60;52.10;;;;;;5051495;28;20208;-47
2023/08/08 06:53:56;;;;;;;2.57;2.03;;;21.50;52.10;;;;;;5044873;28;20455;-47
2023/08/08 06:56:21;;;;;;;3.40;1.80;;;21.70;52.00;;;;;;5045959;28;20443;-47
2023/08/08 06:58:47;;;;;;;2.30;1.80;;;21.80;51.90;;;;;;5052512;28;20210;-48
2023/08/08 07:01:13;;;;;;;2.60;1.87;;;21.80;51.90;;;;;;5047970;28;20588;-46
2023/08/08 07:03:39;;;;;;;4.33;1.90;;;21.80;52.00;;;;;;5052445;28;20582;-45
2023/08/08 07:06:05;;;;;;;2.30;1.87;;;21.80;51.60;;;;;;5045287;28;20539;-45
2023/08/08 07:08:32;;;;;;;2.47;1.87;;;21.80;51.20;;;;;;5051049;28;20203;-46
2023/08/08 07:10:58;;;;;;;2.33;1.70;;;21.90;51.70;;;;;;5050631;28;20534;-46
2023/08/08 07:13:24;;;;;;;2.87;1.63;;;21.90;51.50;;;;;;5046671;28;20514;-50
2023/08/08 07:15:49;;;;;;;2.00;1.80;;;22.10;51.10;;;;;;5051706;28;20527;-47
2023/08/08 07:18:15;;;;;;;2.83;1.73;;;22.30;50.70;;;;;;5052174;28;20196;-46
2023/08/08 07:20:40;;;;;;;3.30;1.87;;;22.40;50.20;;;;;;5051324;28;20201;-46
2023/08/08 07:23:06;;;;;;;1.67;1.57;;;22.30;49.90;;;;;;5050610;28;20194;-48
2023/08/08 07:25:32;;;;;;;1.50;1.40;;;22.30;50.50;;;;;;5043639;28;20695;-46
2023/08/08 07:27:57;;;;;;;2.50;1.37;;;22.40;50.40;;;;;;5051881;28;20184;-46
2023/08/08 07:30:25;;;;;;;1.87;1.47;;;22.40;50.50;;;;;;5051655;28;20204;-46
2023/08/08 07:32:50;;;;;;;3.20;1.80;;;22.50;50.60;;;;;;5050443;28;20216;-47
2023/08/08 07:35:17;;;;;;;3.03;2.03;;;22.50;49.60;;;;;;5042993;28;20962;-46
2023/08/08 07:37:43;;;;;;;3.07;1.57;;;22.40;49.80;;;;;;5048554;28;20188;-46
2023/08/08 07:40:17;;;;;;;4.70;2.53;;;22.30;50.00;;;;;;5051938;28;20489;-46
2023/08/08 07:42:43;;;;;;;2.50;1.83;;;22.30;50.00;;;;;;5050985;28;20199;-46
2023/08/08 07:45:09;;;;;;;2.77;1.67;;;22.50;50.00;;;;;;5053130;28;20827;-46
2023/08/08 07:47:34;;;;;;;1.53;1.40;;;22.50;50.10;;;;;;5053677;28;20652;-46
2023/08/08 07:50:00;;;;;;;1.40;1.30;;;22.60;49.50;;;;;;5055415;28;20204;-46
2023/08/08 07:52:26;;;;;;;1.93;1.63;;;22.80;49.70;;;;;;5048349;28;20280;-45
2023/08/08 07:54:51;;;;;;;1.77;1.30;;;23.10;49.20;;;;;;5053310;28;20200;-48
2023/08/08 07:57:17;;;;;;;2.20;1.50;;;23.30;48.90;;;;;;5047975;28;20200;-47
2023/08/08 07:59:43;;;;;;;2.53;1.60;;;23.50;48.40;;;;;;5054158;28;20640;-47
2023/08/08 08:02:08;;;;;;;1.50;1.40;;;23.40;48.40;;;;;;5053120;28;20184;-47
2023/08/08 08:04:35;;;;;;;2.60;1.80;;;23.50;48.10;;;;;;5055873;28;20683;-46
2023/08/08 08:07:01;;;;;;;3.50;1.60;;;23.60;47.90;;;;;;5055168;28;20272;-46
2023/08/08 08:09:26;;;;;;;2.93;1.93;;;24.00;48.20;;;;;;5047750;28;20439;-50
2023/08/08 08:11:52;;;;;;;2.77;1.50;;;24.20;46.60;;;;;;5042725;28;20275;-47
2023/08/08 08:14:17;;;;;;;1.63;1.40;;;24.10;46.00;;;;;;5043194;28;20200;-46
2023/08/08 08:16:45;;;;;;;3.10;1.53;;;24.10;46.50;;;;;;5052532;28;20280;-48
2023/08/08 08:19:10;;;;;;;2.70;1.40;;;24.10;46.40;;;;;;5050854;28;20189;-44
2023/08/08 08:21:36;;;;;;;1.50;1.37;;;23.70;45.20;;;;;;5050468;28;20465;-46
2023/08/08 08:24:02;;;;;;;1.53;1.40;;;23.50;45.80;;;;;;5051019;28;20228;-44
2023/08/08 08:26:28;;;;;;;2.50;1.30;;;23.40;46.10;;;;;;5052541;28;20630;-45
2023/08/08 08:28:53;;;;;;;1.47;1.10;;;23.60;46.00;;;;;;5052671;28;20228;-45
2023/08/08 08:31:19;;;;;;;1.93;1.83;;;23.90;45.70;;;;;;5052635;28;20184;-45
2023/08/08 08:33:44;;;;;;;1.50;1.40;;;23.70;45.00;;;;;;5042786;28;20291;-46
2023/08/08 08:36:10;;;;;;;2.23;2.03;;;23.60;45.50;;;;;;5049500;28;20188;-47
2023/08/08 08:38:35;;;;;;;1.60;1.43;;;23.70;45.60;;;;;;5050690;28;20675;-45
2023/08/08 08:41:03;;;;;;;2.53;1.50;;;23.80;46.00;;;;;;5052361;28;20246;-45
2023/08/08 08:43:30;;;;;;;2.60;1.40;;;24.00;45.50;;;;;;5044315;28;20290;-46
2023/08/08 08:45:59;;;;;;;1.70;1.60;;;24.00;45.10;;;;;;5048344;28;20451;-47
2023/08/08 08:48:25;;;;;;;2.73;1.60;;;23.80;45.70;;;;;;5045259;28;20439;-45
2023/08/08 08:50:51;;;;;;;3.47;1.80;;;23.90;45.20;;;;;;5046434;28;20436;-45
2023/08/08 08:53:17;;;;;;;2.17;1.40;;;24.00;45.10;;;;;;5047602;28;20906;-45
2023/08/08 08:55:43;;;;;;;1.83;1.47;;;24.20;45.30;;;;;;5045867;28;20681;-44
2023/08/08 08:58:09;;;;;;;1.77;1.27;;;24.40;45.30;;;;;;5048075;28;20431;-46
2023/08/08 09:00:35;;;;;;;3.63;1.80;;;24.40;45.60;;;;;;5050615;28;20515;-48
2023/08/08 09:03:01;;;;;;;7.30;1.27;;;24.50;44.50;;;;;;5040444;28;20467;-45
2023/08/08 09:05:28;;;;;;;3.70;1.80;;;24.40;44.60;;;;;;5046924;28;20267;-45
2023/08/08 09:07:53;;;;;;;2.37;1.47;;;24.50;44.40;;;;;;5046497;28;20447;-46
2023/08/08 09:10:19;;;;;;;1.67;1.57;;;24.40;44.60;;;;;;5050546;28;20768;-46
2023/08/08 09:12:45;;;;;;;2.30;1.40;;;24.40;43.70;;;;;;5053867;28;20204;-47
2023/08/08 09:15:11;;;;;;;2.33;1.40;;;24.40;43.90;;;;;;5050404;28;20474;-45
2023/08/08 09:17:44;;;;;;;1.70;1.17;;;24.50;44.20;;;;;;5047022;28;20578;-48
2023/08/08 09:20:11;;;;;;;2.77;1.23;;;24.50;43.30;;;;;;5049935;28;20439;-45
2023/08/08 09:22:37;;;;;;;2.67;1.50;;;24.70;43.80;;;;;;5049348;28;20879;-45
2023/08/08 09:25:04;;;;;;;3.73;1.57;;;24.50;43.40;;;;;;5049895;28;20553;-52
2023/08/08 09:27:30;;;;;;;1.73;1.40;;;24.30;44.00;;;;;;5047706;28;20492;-51
2023/08/08 09:29:56;;;;;;;2.70;1.40;;;24.30;44.50;;;;;;5051170;28;20438;-51
2023/08/08 09:32:21;;;;;;;3.87;2.03;;;24.80;44.20;;;;;;5042807;28;20199;-49
2023/08/08 09:34:47;;;;;;;5.40;1.73;;;24.80;43.60;;;;;;5044035;28;20466;-50
2023/08/08 09:37:14;;;;;;;3.13;1.70;;;25.00;42.80;;;;;;5049241;28;20203;-46
2023/08/08 09:39:39;;;;;;;3.60;1.63;;;24.80;42.70;;;;;;5049559;28;20628;-49
2023/08/08 09:42:08;;;;;;;1.70;1.40;;;24.80;42.70;;;;;;5047409;28;20512;-50
2023/08/08 09:44:35;;;;;;;1.67;1.30;;;24.80;42.20;;;;;;5041549;28;20264;-51
2023/08/08 09:47:01;;;;;;;2.07;1.50;;;24.60;42.50;;;;;;5041710;28;20447;-50
2023/08/08 09:49:28;;;;;;;5.13;1.77;;;24.60;42.90;;;;;;5039897;28;22222;-51
2023/08/08 09:51:54;;;;;;;3.73;2.00;;;24.60;43.00;;;;;;5043463;28;20926;-46
2023/08/08 09:54:21;;;;;;;2.73;1.30;;;24.80;42.90;;;;;;5039379;28;20542;-49
2023/08/08 09:56:49;;;;;;;3.67;1.57;;;25.00;42.70;;;;;;5048071;28;20439;-48
2023/08/08 09:59:18;;;;;;;2.57;1.33;;;25.00;41.50;;;;;;5043897;28;20463;-48
2023/08/08 10:01:44;;;;;;;4.20;1.47;;;25.30;41.90;;;;;;5037439;28;20443;-48
2023/08/08 10:04:11;;;;;;;1.40;1.30;;;25.60;41.80;;;;;;5048045;28;20567;-47
2023/08/08 10:06:37;;;;;;;2.17;1.40;;;25.80;41.50;;;;;;5052371;28;20506;-50
2023/08/08 10:09:03;;;;;;;2.23;1.37;;;25.90;40.70;;;;;;5049387;28;20461;-48
2023/08/08 10:11:31;;;;;;;1.80;1.57;;;25.70;41.20;;;;;;5040609;28;20199;-48
2023/08/08 10:13:57;;;;;;;2.20;1.60;;;25.60;41.00;;;;;;5047181;28;20443;-48
2023/08/08 10:16:24;;;;;;;2.23;1.23;;;25.80;40.80;;;;;;5046260;28;20440;-50
2023/08/08 10:18:58;;;;;;;2.07;1.50;;;25.90;39.00;;;;;;5042199;28;20447;-49
2023/08/08 10:21:25;;;;;;;1.60;1.50;;;25.60;40.10;;;;;;5051041;28;20445;-47
2023/08/08 10:24:10;;;;;;;2.03;1.67;;;25.60;39.40;;;;;;5049727;28;20483;-50
2023/08/08 10:26:53;;;;;;;1.87;1.33;;;25.60;39.40;;;;;;5044370;28;20500;-47
2023/08/08 10:29:19;;;;;;;1.50;1.40;;;25.60;39.20;;;;;;5042186;28;20450;-50
2023/08/08 10:31:52;;;;;;;1.77;1.67;;;25.60;39.30;;;;;;5045731;28;20440;-46
2023/08/08 10:34:21;;;;;;;5.37;1.87;;;25.80;40.30;;;;;;5045808;28;21187;-47
2023/08/08 10:36:52;;;;;;;1.70;1.30;;;25.90;39.30;;;;;;5049908;28;20447;-46
2023/08/08 10:39:20;;;;;;;2.40;1.37;;;25.90;39.10;;;;;;5048747;28;21007;-45
2023/08/08 10:41:50;;;;;;;2.03;1.40;;;25.80;38.60;;;;;;5047139;28;20450;-47
2023/08/08 10:44:26;;;;;;;1.33;1.13;;;25.90;38.50;;;;;;5051293;28;20495;-50
2023/08/08 10:46:53;;;;;;;1.83;1.53;;;25.60;37.60;;;;;;5048476;28;20458;-45
2023/08/08 10:49:19;;;;;;;1.63;1.10;;;25.70;38.10;;;;;;5050904;28;20493;-45
2023/08/08 10:51:47;;;;;;;1.80;1.37;;;25.90;37.60;;;;;;5044118;28;20447;-46
2023/08/08 10:54:27;;;;;;;2.20;1.40;;;26.10;37.90;;;;;;5049929;28;20538;-45
2023/08/08 10:56:57;;;;;;;3.27;1.40;;;26.50;37.30;;;;;;5039739;28;21006;-46
2023/08/08 10:59:26;;;;;;;1.77;1.60;;;26.50;37.20;;;;;;5049168;28;20536;-47
2023/08/08 11:01:53;;;;;;;1.50;1.40;;;26.70;37.70;;;;;;5049183;28;20934;-47
2023/08/08 11:04:21;;;;;;;4.43;1.20;;;26.90;37.00;;;;;;5051963;28;20479;-47
2023/08/08 11:06:48;;;;;;;1.73;1.23;;;26.60;36.20;;;;;;5049250;28;20889;-47
2023/08/08 11:09:15;;;;;;;1.57;1.37;;;26.50;35.50;;;;;;5051213;28;20430;-47
2023/08/08 11:11:42;;;;;;;2.20;1.27;;;26.70;35.30;;;;;;5045020;28;20454;-46
2023/08/08 11:14:16;;;;;;;3.07;1.63;;;26.40;35.20;;;;;;5044390;28;20443;-49
2023/08/08 11:16:43;;;;;;;1.43;1.10;;;26.40;35.70;;;;;;5050360;28;20457;-46
2023/08/08 11:19:10;;;;;;;2.50;1.37;;;26.60;36.10;;;;;;5051570;28;20443;-48
2023/08/08 11:21:37;;;;;;;2.50;1.27;;;26.60;35.50;;;;;;5048055;28;20439;-46
2023/08/08 11:24:04;;;;;;;2.40;1.67;;;26.80;35.80;;;;;;5049471;28;20617;-46
2023/08/08 11:26:33;;;;;;;2.63;1.20;;;26.90;35.60;;;;;;5047765;28;20442;-47
2023/08/08 11:29:04;;;;;;;1.67;1.30;;;26.90;34.70;;;;;;5044890;28;20423;-46
2023/08/08 11:31:30;;;;;;;1.57;1.40;;;26.90;35.10;;;;;;5049361;28;20435;-46
2023/08/08 11:33:59;;;;;;;1.80;1.17;;;26.90;34.30;;;;;;5050080;28;20489;-46
2023/08/08 11:36:24;;;;;;;2.10;1.30;;;26.90;35.10;;;;;;5045870;28;20444;-46
2023/08/08 11:38:51;;;;;;;1.30;1.00;;;26.80;34.20;;;;;;5050173;28;20442;-47
2023/08/08 11:41:20;;;;;;;2.50;1.70;;;26.80;33.50;;;;;;5040118;28;20227;-48
2023/08/08 11:43:46;;;;;;;1.20;1.10;;;27.00;32.60;;;;;;5042127;28;20958;-51
2023/08/08 11:46:15;;;;;;;2.50;1.43;;;27.00;32.60;;;;;;5044059;28;20438;-47
2023/08/08 11:48:41;;;;;;;1.40;1.30;;;27.20;33.00;;;;;;5051172;28;20193;-47
2023/08/08 11:51:08;;;;;;;3.10;1.60;;;27.60;33.30;;;;;;5046580;28;20477;-47
2023/08/08 11:53:34;;;;;;;2.27;1.53;;;27.60;32.80;;;;;;5040013;28;20438;-48
2023/08/08 11:56:00;;;;;;;2.13;1.40;;;27.50;32.50;;;;;;5037773;28;20452;-50
2023/08/08 11:58:26;;;;;;;1.67;1.50;;;27.20;32.80;;;;;;5043561;28;20450;-51
2023/08/08 12:00:54;;;;;;;1.20;1.10;;;27.10;31.70;;;;;;5043067;28;20814;-47
2023/08/08 12:03:20;;;;;;;1.33;1.13;;;27.40;31.40;;;;;;5043374;28;20223;-47
2023/08/08 12:05:47;;;;;;;1.47;1.07;;;27.50;30.80;;;;;;5048192;28;20826;-46
2023/08/08 12:08:17;;;;;;;1.53;1.23;;;27.50;30.80;;;;;;5049807;28;20324;-48
2023/08/08 12:10:47;;;;;;;1.13;1.03;;;27.40;31.70;;;;;;5049411;28;20431;-48
2023/08/08 12:13:13;;;;;;;1.40;1.30;;;27.50;32.10;;;;;;5052104;28;20424;-48
2023/08/08 12:15:38;;;;;;;2.20;1.67;;;27.60;32.40;;;;;;5043605;28;20497;-48
2023/08/08 12:18:04;;;;;;;1.50;1.40;;;27.80;32.20;;;;;;5035921;28;20185;-45
2023/08/08 12:20:31;;;;;;;2.70;1.20;;;27.90;32.30;;;;;;5046200;28;20629;-45
2023/08/08 12:22:57;;;;;;;1.67;1.40;;;28.10;32.40;;;;;;5045643;28;20204;-45
2023/08/08 12:25:22;;;;;;;5.60;1.57;;;28.20;32.50;;;;;;5048589;28;21057;-47
2023/08/08 12:27:49;;;;;;;2.23;1.30;;;28.10;33.10;;;;;;5047466;28;20531;-45
2023/08/08 12:30:15;;;;;;;1.60;1.30;;;28.20;32.70;;;;;;5045226;28;20250;-45
2023/08/08 12:32:40;;;;;;;1.47;1.37;;;28.30;31.30;;;;;;5037117;28;20447;-51
2023/08/08 12:35:07;;;;;;;2.63;1.60;;;28.40;30.80;;;;;;5042386;28;20721;-49
2023/08/08 12:37:33;;;;;;;3.20;1.87;;;28.30;30.60;;;;;;5042412;28;20217;-46
2023/08/08 12:39:58;;;;;;;1.83;1.57;;;28.10;31.30;;;;;;5039627;28;20447;-47
2023/08/08 12:42:24;;;;;;;3.33;1.20;;;28.00;32.30;;;;;;5050497;28;20500;-45
2023/08/08 12:44:53;;;;;;;4.47;1.50;;;28.00;32.00;;;;;;5041652;28;22549;-45